createdAt,value
2024-04-24T00:01:24.637Z,19.41
2024-04-24T00:03:55.063Z,19.40
2024-04-24T00:06:25.699Z,19.40
2024-04-24T00:08:58.798Z,19.40
2024-04-24T00:11:29.321Z,19.41
2024-04-24T00:13:59.738Z,19.42
2024-04-24T00:16:30.027Z,19.41
2024-04-24T00:19:00.626Z,19.42
2024-04-24T00:21:30.940Z,19.42
2024-04-24T00:24:04.147Z,19.41
2024-04-24T00:26:34.970Z,19.42
2024-04-24T00:29:05.560Z,19.42
2024-04-24T00:31:36.020Z,19.42
2024-04-24T00:34:07.703Z,19.42
2024-04-24T00:36:38.101Z,19.41
2024-04-24T00:39:11.160Z,19.42
2024-04-24T00:41:41.468Z,19.42
2024-04-24T00:44:12.010Z,19.42
2024-04-24T00:46:42.528Z,19.46
2024-04-24T00:49:12.869Z,19.50
2024-04-24T00:51:43.318Z,19.52
2024-04-24T00:54:16.469Z,19.49
2024-04-24T00:56:46.844Z,19.47
2024-04-24T00:59:17.278Z,19.47
2024-04-24T01:01:47.880Z,19.47
2024-04-24T01:04:18.298Z,19.47
2024-04-24T01:06:51.629Z,19.48
2024-04-24T01:09:24.897Z,19.48
2024-04-24T01:11:55.607Z,19.47
2024-04-24T01:14:26.242Z,19.46
2024-04-24T01:16:56.866Z,19.46
2024-04-24T01:19:37.435Z,19.47
2024-04-24T01:22:12.915Z,19.47
2024-04-24T01:24:46.460Z,19.45
2024-04-24T01:27:19.571Z,19.44
2024-04-24T01:29:49.909Z,19.43
2024-04-24T01:32:20.343Z,19.42
2024-04-24T01:34:50.822Z,19.40
2024-04-24T01:37:18.593Z,19.40
2024-04-24T01:39:48.943Z,19.40
2024-04-24T01:42:22.338Z,19.38
2024-04-24T01:44:52.643Z,19.39
2024-04-24T01:47:23.157Z,19.38
2024-04-24T01:49:50.940Z,19.39
2024-04-24T01:52:21.278Z,19.38
2024-04-24T01:54:51.632Z,19.38
2024-04-24T01:57:24.966Z,19.37
2024-04-24T01:59:55.399Z,19.36
2024-04-24T02:02:25.764Z,19.37
2024-04-24T02:04:56.171Z,19.38
2024-04-24T02:07:26.524Z,19.37
2024-04-24T02:09:56.853Z,19.37
2024-04-24T02:12:29.891Z,19.37
2024-04-24T02:15:00.354Z,19.36
2024-04-24T02:17:31.682Z,19.38
2024-04-24T02:20:02.261Z,19.40
2024-04-24T02:22:35.166Z,19.39
2024-04-24T02:25:23.170Z,19.40
2024-04-24T02:27:56.161Z,19.40
2024-04-24T02:30:26.541Z,19.39
2024-04-24T02:32:56.987Z,19.38
2024-04-24T02:35:27.966Z,19.36
2024-04-24T02:37:58.379Z,19.36
2024-04-24T02:40:28.809Z,19.37
2024-04-24T02:43:01.850Z,19.37
2024-04-24T02:45:32.151Z,19.36
2024-04-24T02:48:02.652Z,19.34
2024-04-24T02:50:33.170Z,19.35
2024-04-24T02:53:04.031Z,19.36
2024-04-24T02:55:34.515Z,19.37
2024-04-24T02:58:08.022Z,19.34
2024-04-24T03:00:38.426Z,19.35
2024-04-24T03:03:09.306Z,19.34
2024-04-24T03:05:39.766Z,19.33
2024-04-24T03:08:10.611Z,19.33
2024-04-24T03:10:41.063Z,19.33
2024-04-24T03:13:14.095Z,19.31
2024-04-24T03:15:44.551Z,19.32
2024-04-24T03:18:14.993Z,19.31
2024-04-24T03:20:45.753Z,19.34
2024-04-24T03:23:16.423Z,19.34
2024-04-24T03:25:47.482Z,19.35
2024-04-24T03:28:20.590Z,19.36
2024-04-24T03:30:50.903Z,19.36
2024-04-24T03:33:21.346Z,19.35
2024-04-24T03:35:51.758Z,19.36
2024-04-24T03:38:22.186Z,19.34
2024-04-24T03:40:52.590Z,19.33
2024-04-24T03:43:25.669Z,19.34
2024-04-24T03:45:56.130Z,19.34
2024-04-24T03:48:23.883Z,19.34
2024-04-24T03:50:54.250Z,19.34
2024-04-24T03:53:24.646Z,19.33
2024-04-24T03:55:55.249Z,19.34
2024-04-24T03:58:28.303Z,19.34
2024-04-24T04:00:58.707Z,19.34
2024-04-24T04:03:29.122Z,19.33
2024-04-24T04:05:59.473Z,19.33
2024-04-24T04:08:31.157Z,19.32
2024-04-24T04:11:01.712Z,19.32
2024-04-24T04:13:34.750Z,19.32
2024-04-24T04:16:05.100Z,19.32
2024-04-24T04:18:35.936Z,19.31
2024-04-24T04:21:06.401Z,19.33
2024-04-24T04:23:36.696Z,19.33
2024-04-24T04:26:07.442Z,19.35
2024-04-24T04:28:40.494Z,19.36
2024-04-24T04:31:10.915Z,19.36
2024-04-24T04:33:41.310Z,19.34
2024-04-24T04:36:12.149Z,19.34
2024-04-24T04:38:42.523Z,19.34
2024-04-24T04:41:12.910Z,19.33
2024-04-24T04:43:46.041Z,19.34
2024-04-24T04:46:16.368Z,19.31
2024-04-24T04:48:47.311Z,19.31
2024-04-24T04:51:18.369Z,19.30
2024-04-24T04:53:48.772Z,19.30
2024-04-24T04:56:19.175Z,19.31
2024-04-24T04:58:52.234Z,19.32
2024-04-24T05:01:22.588Z,19.33
2024-04-24T05:03:53.045Z,19.35
2024-04-24T05:06:23.358Z,19.36
2024-04-24T05:08:54.494Z,19.37
2024-04-24T05:11:25.118Z,19.39
2024-04-24T05:13:58.286Z,19.40
2024-04-24T05:16:28.625Z,19.42
2024-04-24T05:18:59.036Z,19.45
2024-04-24T05:21:29.336Z,19.46
2024-04-24T05:23:59.979Z,19.45
2024-04-24T05:26:46.498Z,19.43
2024-04-24T05:29:19.581Z,19.42
2024-04-24T05:31:51.043Z,19.39
2024-04-24T05:34:21.442Z,19.38
2024-04-24T05:36:51.810Z,19.38
2024-04-24T05:39:22.244Z,19.36
2024-04-24T05:41:52.580Z,19.40
2024-04-24T05:44:28.886Z,19.38
2024-04-24T05:47:00.046Z,19.38
2024-04-24T05:49:30.396Z,19.39
2024-04-24T05:52:01.211Z,19.39
2024-04-24T05:54:32.279Z,19.38
2024-04-24T05:57:02.640Z,19.39
2024-04-24T05:59:36.394Z,19.40
2024-04-24T06:02:06.868Z,19.41
2024-04-24T06:04:37.751Z,19.43
2024-04-24T06:07:08.278Z,19.46
2024-04-24T06:09:38.637Z,19.47
2024-04-24T06:12:09.225Z,19.50
2024-04-24T06:14:42.234Z,19.51
2024-04-24T06:17:13.067Z,19.52
2024-04-24T06:19:43.832Z,19.52
2024-04-24T06:22:14.193Z,19.51
2024-04-24T06:24:44.605Z,19.51
2024-04-24T06:27:15.066Z,19.53
2024-04-24T06:29:48.168Z,19.54
2024-04-24T06:32:18.609Z,19.59
2024-04-24T06:34:49.062Z,19.66
2024-04-24T06:37:19.421Z,19.71
2024-04-24T06:39:49.953Z,19.76
2024-04-24T06:42:20.303Z,19.76
2024-04-24T06:44:53.776Z,19.75
2024-04-24T06:47:24.330Z,19.74
2024-04-24T06:49:54.848Z,19.74
2024-04-24T06:52:25.239Z,19.74
2024-04-24T06:54:55.617Z,19.74
2024-04-24T06:57:25.956Z,19.72
2024-04-24T06:59:59.149Z,19.71
2024-04-24T07:02:29.648Z,19.71
2024-04-24T07:05:00.151Z,19.72
2024-04-24T07:07:30.543Z,19.71
2024-04-24T07:10:00.970Z,19.71
2024-04-24T07:12:31.267Z,19.72
2024-04-24T07:15:04.849Z,19.72
2024-04-24T07:17:35.378Z,19.72
2024-04-24T07:20:05.891Z,19.71
2024-04-24T07:22:36.236Z,19.72
2024-04-24T07:25:06.731Z,19.71
2024-04-24T07:27:37.162Z,19.70
2024-04-24T07:30:12.106Z,19.70
2024-04-24T07:32:42.646Z,19.68
2024-04-24T07:35:13.116Z,19.67
2024-04-24T07:37:44.190Z,19.67
2024-04-24T07:40:15.104Z,19.70
2024-04-24T07:42:45.507Z,19.72
2024-04-24T07:45:18.748Z,19.71
2024-04-24T07:47:49.297Z,19.69
2024-04-24T07:50:19.831Z,19.68
2024-04-24T07:52:50.344Z,19.68
2024-04-24T07:55:20.718Z,19.70
2024-04-24T07:57:51.123Z,19.69
2024-04-24T08:00:26.745Z,19.69
2024-04-24T08:02:57.179Z,19.72
2024-04-24T08:05:27.717Z,19.69
2024-04-24T08:07:58.206Z,19.67
2024-04-24T08:10:28.566Z,19.64
2024-04-24T08:12:58.915Z,19.62
2024-04-24T08:15:32.064Z,19.61
2024-04-24T08:18:02.554Z,19.62
2024-04-24T08:20:33.069Z,19.61
2024-04-24T08:23:03.667Z,19.59
2024-04-24T08:25:34.087Z,19.57
2024-04-24T08:28:04.757Z,19.58
2024-04-24T08:30:37.849Z,19.55
2024-04-24T08:33:08.797Z,19.55
2024-04-24T08:35:39.488Z,19.55
2024-04-24T08:38:09.920Z,19.55
2024-04-24T08:40:40.455Z,19.57
2024-04-24T08:43:10.849Z,19.60
2024-04-24T08:45:43.828Z,19.61
2024-04-24T08:48:16.898Z,19.63
2024-04-24T08:50:47.895Z,19.63
2024-04-24T08:53:18.366Z,19.65
2024-04-24T08:55:48.756Z,19.66
2024-04-24T08:58:19.994Z,19.65
2024-04-24T09:00:53.514Z,19.67
2024-04-24T09:03:26.508Z,19.66
2024-04-24T09:05:58.582Z,19.68
2024-04-24T09:08:29.027Z,19.73
2024-04-24T09:10:59.607Z,19.80
2024-04-24T09:13:29.964Z,19.89
2024-04-24T09:16:03.801Z,19.99
2024-04-24T09:18:34.156Z,20.08
2024-04-24T09:21:05.060Z,20.14
2024-04-24T09:23:35.426Z,20.18
2024-04-24T09:26:05.877Z,20.23
2024-04-24T09:28:36.277Z,20.25
2024-04-24T09:31:10.441Z,20.28
2024-04-24T09:33:40.833Z,20.28
2024-04-24T09:36:11.973Z,20.29
2024-04-24T09:38:43.147Z,20.27
2024-04-24T09:41:13.910Z,20.24
2024-04-24T09:43:44.355Z,20.25
2024-04-24T09:46:19.486Z,20.32
2024-04-24T09:48:49.974Z,20.40
2024-04-24T09:53:52.408Z,20.42
2024-04-24T09:56:24.335Z,20.42
2024-04-24T09:58:55.494Z,20.41
2024-04-24T10:01:29.962Z,20.42
2024-04-24T10:04:00.289Z,20.40
2024-04-24T10:06:30.783Z,20.43
2024-04-24T10:09:02.362Z,20.47
2024-04-24T10:11:36.876Z,20.48
2024-04-24T10:14:08.774Z,20.43
2024-04-24T10:16:42.765Z,20.39
2024-04-24T10:19:13.259Z,20.36
2024-04-24T10:21:43.876Z,20.33
2024-04-24T10:24:11.555Z,20.35
2024-04-24T10:26:42.027Z,20.37
2024-04-24T10:29:12.403Z,20.39
2024-04-24T10:31:45.738Z,20.51
2024-04-24T10:34:16.092Z,20.64
2024-04-24T10:36:47.460Z,20.71
2024-04-24T10:39:18.575Z,20.76
2024-04-24T10:41:49.319Z,20.82
2024-04-24T10:44:19.984Z,20.89
2024-04-24T10:46:53.097Z,20.98
2024-04-24T10:49:23.500Z,21.09
2024-04-24T10:51:53.953Z,21.11
2024-04-24T10:54:24.677Z,21.09
2024-04-24T10:56:54.988Z,21.08
2024-04-24T10:59:33.352Z,21.13
2024-04-24T11:02:20.315Z,21.20
2024-04-24T11:04:51.798Z,21.20
2024-04-24T11:07:28.818Z,21.20
2024-04-24T11:10:08.232Z,21.21
2024-04-24T11:12:41.871Z,21.22
2024-04-24T11:15:22.342Z,21.23
2024-04-24T11:17:55.759Z,21.25
2024-04-24T11:20:28.146Z,21.28
2024-04-24T11:22:58.705Z,21.29
2024-04-24T11:25:31.855Z,21.32
2024-04-24T11:28:02.508Z,21.39
2024-04-24T11:30:34.393Z,21.41
2024-04-24T11:33:08.019Z,21.36
2024-04-24T11:35:38.530Z,21.32
2024-04-24T11:38:08.946Z,21.27
2024-04-24T11:40:39.315Z,21.21
2024-04-24T11:43:09.732Z,21.19
2024-04-24T11:45:41.022Z,21.18
2024-04-24T11:48:14.378Z,21.15
2024-04-24T11:50:44.854Z,21.18
2024-04-24T11:53:15.307Z,21.26
2024-04-24T11:55:45.736Z,21.30
2024-04-24T11:58:16.289Z,21.30
2024-04-24T12:00:48.354Z,21.27
2024-04-24T12:03:22.769Z,21.23
2024-04-24T12:05:54.140Z,21.23
2024-04-24T12:08:29.144Z,21.26
2024-04-24T12:11:01.024Z,21.26
2024-04-24T12:13:33.531Z,21.30
2024-04-24T12:16:04.566Z,21.33
2024-04-24T12:18:38.267Z,21.36
2024-04-24T12:21:08.961Z,21.39
2024-04-24T12:23:39.331Z,21.43
2024-04-24T12:26:09.692Z,21.47
2024-04-24T12:28:40.037Z,21.53
2024-04-24T12:31:10.436Z,21.56
2024-04-24T12:33:43.612Z,21.57
2024-04-24T12:36:15.479Z,21.58
2024-04-24T12:38:45.878Z,21.64
2024-04-24T12:41:16.226Z,21.72
2024-04-24T12:43:46.635Z,21.72
2024-04-24T12:46:17.087Z,21.72
2024-04-24T12:48:51.134Z,21.71
2024-04-24T12:51:21.499Z,21.56
2024-04-24T12:53:51.928Z,21.40
2024-04-24T12:56:22.361Z,21.25
2024-04-24T12:58:53.879Z,21.14
2024-04-24T13:01:24.402Z,21.07
2024-04-24T13:03:57.743Z,21.03
2024-04-24T13:06:28.232Z,21.01
2024-04-24T13:09:01.142Z,20.99
2024-04-24T13:11:31.607Z,20.95
2024-04-24T13:14:02.208Z,20.93
2024-04-24T13:16:32.622Z,20.88
2024-04-24T13:19:05.762Z,20.83
2024-04-24T13:21:36.268Z,20.79
2024-04-24T13:24:04.333Z,20.76
2024-04-24T13:26:34.835Z,20.73
2024-04-24T13:29:05.362Z,20.70
2024-04-24T13:31:35.840Z,20.69
2024-04-24T13:34:09.135Z,20.70
2024-04-24T13:36:39.856Z,20.69
2024-04-24T13:39:10.718Z,20.68
2024-04-24T13:41:42.445Z,20.65
2024-04-24T13:44:15.847Z,20.64
2024-04-24T13:46:46.984Z,20.64
2024-04-24T13:49:20.169Z,20.65
2024-04-24T13:51:50.605Z,20.65
2024-04-24T13:54:20.939Z,20.67
2024-04-24T13:56:51.456Z,20.68
2024-04-24T13:59:21.987Z,20.67
2024-04-24T14:01:55.375Z,20.64
2024-04-24T14:04:28.544Z,20.63
2024-04-24T14:06:58.910Z,20.62
2024-04-24T14:09:29.920Z,20.62
2024-04-24T14:12:00.331Z,20.61
2024-04-24T14:14:31.252Z,20.61
2024-04-24T14:17:01.730Z,20.59
2024-04-24T14:19:34.884Z,20.58
2024-04-24T14:22:05.504Z,20.59
2024-04-24T14:24:35.857Z,20.60
2024-04-24T14:27:06.276Z,20.63
2024-04-24T14:29:36.671Z,20.67
2024-04-24T14:32:07.291Z,20.73
2024-04-24T14:34:43.133Z,20.96
2024-04-24T14:37:13.572Z,21.01
2024-04-24T14:39:44.089Z,21.00
2024-04-24T14:42:14.508Z,21.44
2024-04-24T14:44:46.797Z,23.06
2024-04-24T14:47:17.478Z,24.08
2024-04-24T14:49:50.607Z,23.76
2024-04-24T14:52:21.579Z,23.67
2024-04-24T14:54:51.938Z,22.92
2024-04-24T14:57:22.279Z,22.83
2024-04-24T14:59:52.751Z,22.84
2024-04-24T15:02:23.147Z,22.60
2024-04-24T15:04:56.209Z,23.03
2024-04-24T15:07:26.551Z,23.28
2024-04-24T15:09:57.550Z,23.23
2024-04-24T15:12:25.294Z,22.91
2024-04-24T15:14:55.759Z,23.59
2024-04-24T15:17:26.201Z,23.63
2024-04-24T15:20:00.158Z,24.50
2024-04-24T15:22:30.687Z,24.03
2024-04-24T15:25:01.010Z,23.45
2024-04-24T15:27:32.707Z,23.20
2024-04-24T15:30:03.082Z,22.66
2024-04-24T15:32:33.594Z,22.32
2024-04-24T15:35:08.340Z,22.06
2024-04-24T15:37:38.839Z,21.90
2024-04-24T15:40:10.135Z,21.81
2024-04-24T15:42:40.527Z,21.76
2024-04-24T15:45:11.366Z,21.71
2024-04-24T15:47:41.828Z,21.64
2024-04-24T15:50:15.000Z,21.57
2024-04-24T15:52:45.332Z,21.51
2024-04-24T15:55:15.735Z,21.43
2024-04-24T15:57:46.205Z,21.37
2024-04-24T16:00:17.446Z,21.32
2024-04-24T16:02:49.823Z,21.24
2024-04-24T16:05:26.313Z,21.19
2024-04-24T16:07:56.741Z,21.12
2024-04-24T16:10:27.068Z,21.05
2024-04-24T16:12:55.348Z,20.99
2024-04-24T16:15:25.789Z,20.94
2024-04-24T16:17:56.896Z,20.88
2024-04-24T16:20:30.258Z,20.85
2024-04-24T16:23:00.817Z,20.80
2024-04-24T16:25:33.438Z,20.75
2024-04-24T16:28:04.013Z,20.71
2024-04-24T16:30:34.331Z,20.68
2024-04-24T16:33:04.905Z,20.64
2024-04-24T16:35:38.039Z,20.60
2024-04-24T16:38:08.839Z,20.58
2024-04-24T16:40:40.651Z,20.55
2024-04-24T16:43:11.875Z,20.52
2024-04-24T16:45:42.218Z,20.50
2024-04-24T16:48:14.115Z,20.48
2024-04-24T16:50:47.527Z,20.45
2024-04-24T16:53:17.914Z,20.43
2024-04-24T16:55:50.313Z,20.41
2024-04-24T16:58:21.177Z,20.37
2024-04-24T17:00:51.569Z,20.35
2024-04-24T17:03:21.938Z,20.32
2024-04-24T17:05:55.450Z,20.31
2024-04-24T17:08:26.071Z,20.29
2024-04-24T17:10:57.262Z,20.27
2024-04-24T17:13:27.749Z,20.25
2024-04-24T17:15:58.150Z,20.23
2024-04-24T17:18:28.630Z,20.23
2024-04-24T17:21:03.482Z,20.20
2024-04-24T17:23:31.216Z,20.18
2024-04-24T17:26:02.417Z,20.18
2024-04-24T17:28:35.707Z,20.16
2024-04-24T17:31:06.123Z,20.13
2024-04-24T17:33:36.519Z,20.13
2024-04-24T17:36:12.556Z,20.12
2024-04-24T17:38:42.863Z,20.11
2024-04-24T17:41:13.400Z,20.12
2024-04-24T17:43:43.858Z,20.11
2024-04-24T17:46:14.591Z,20.15
2024-04-24T17:48:45.158Z,20.17
2024-04-24T17:51:18.274Z,20.19
2024-04-24T17:53:48.614Z,20.18
2024-04-24T17:56:19.290Z,20.20
2024-04-24T17:58:49.693Z,20.20
2024-04-24T18:01:20.436Z,20.20
2024-04-24T18:03:50.832Z,20.20
2024-04-24T18:06:23.959Z,20.16
2024-04-24T18:08:54.346Z,20.13
2024-04-24T18:11:25.245Z,20.10
2024-04-24T18:13:55.701Z,20.07
2024-04-24T18:16:26.069Z,20.06
2024-04-24T18:18:54.517Z,20.05
2024-04-24T18:21:30.116Z,20.06
2024-04-24T18:24:00.483Z,20.05
2024-04-24T18:26:30.962Z,20.04
2024-04-24T18:29:02.531Z,20.05
2024-04-24T18:31:33.672Z,20.03
2024-04-24T18:34:04.183Z,19.98
2024-04-24T18:36:37.432Z,19.93
2024-04-24T18:39:08.193Z,19.88
2024-04-24T18:41:38.783Z,19.84
2024-04-24T18:44:09.755Z,19.80
2024-04-24T18:46:40.139Z,19.79
2024-04-24T18:49:10.518Z,19.74
2024-04-24T18:51:43.771Z,19.72
2024-04-24T18:54:16.328Z,19.71
2024-04-24T18:56:46.845Z,19.68
2024-04-24T18:59:17.242Z,19.70
2024-04-24T19:01:47.683Z,19.73
2024-04-24T19:04:18.217Z,19.73
2024-04-24T19:06:51.259Z,19.76
2024-04-24T19:09:19.055Z,19.76
2024-04-24T19:11:49.584Z,19.80
2024-04-24T19:14:20.112Z,19.79
2024-04-24T19:16:51.593Z,19.78
2024-04-24T19:19:22.239Z,19.76
2024-04-24T19:21:55.245Z,19.77
2024-04-24T19:24:25.647Z,19.78
2024-04-24T19:26:56.035Z,19.78
2024-04-24T19:29:26.481Z,19.79
2024-04-24T19:31:56.934Z,19.80
2024-04-24T19:34:27.315Z,19.80
2024-04-24T19:37:00.440Z,19.81
2024-04-24T19:39:30.779Z,19.81
2024-04-24T19:42:01.144Z,19.81
2024-04-24T19:44:31.485Z,19.80
2024-04-24T19:47:02.753Z,19.80
2024-04-24T19:49:33.199Z,19.79
2024-04-24T19:52:06.202Z,19.78
2024-04-24T19:54:38.426Z,19.79
2024-04-24T19:57:09.062Z,19.78
2024-04-24T19:59:39.518Z,19.77
2024-04-24T20:02:10.269Z,19.77
2024-04-24T20:04:40.740Z,19.77
2024-04-24T20:07:14.721Z,19.76
2024-04-24T20:09:46.240Z,19.76
2024-04-24T20:12:16.702Z,19.76
2024-04-24T20:14:47.200Z,19.77
2024-04-24T20:17:17.687Z,19.77
2024-04-24T20:19:48.190Z,19.75
2024-04-24T20:22:21.208Z,19.75
2024-04-24T20:24:51.635Z,19.74
2024-04-24T20:27:22.033Z,19.74
2024-04-24T20:29:53.098Z,19.73
2024-04-24T20:32:26.821Z,19.73
2024-04-24T20:34:57.429Z,19.73
2024-04-24T20:37:30.445Z,19.72
2024-04-24T20:40:00.906Z,19.72
2024-04-24T20:42:31.256Z,19.72
2024-04-24T20:45:03.543Z,19.73
2024-04-24T20:47:34.156Z,19.73
2024-04-24T20:50:05.373Z,19.71
2024-04-24T20:52:38.430Z,19.71
2024-04-24T20:55:09.777Z,19.70
2024-04-24T20:57:40.118Z,19.68
2024-04-24T21:00:12.913Z,19.67
2024-04-24T21:02:43.329Z,19.68
2024-04-24T21:05:13.835Z,19.67
2024-04-24T21:07:46.849Z,19.67
2024-04-24T21:10:17.218Z,19.67
2024-04-24T21:12:47.552Z,19.67
2024-04-24T21:15:18.049Z,19.67
2024-04-24T21:17:48.487Z,19.66
2024-04-24T21:20:19.037Z,19.65
2024-04-24T21:22:52.096Z,19.64
2024-04-24T21:25:22.432Z,19.63
2024-04-24T21:27:52.760Z,19.62
2024-04-24T21:30:23.034Z,19.62
2024-04-24T21:32:53.537Z,19.61
2024-04-24T21:35:23.970Z,19.60
2024-04-24T21:37:57.127Z,19.58
2024-04-24T21:40:27.557Z,19.57
2024-04-24T21:42:58.777Z,19.55
2024-04-24T21:45:30.278Z,19.53
2024-04-24T21:48:00.664Z,19.52
2024-04-24T21:50:31.082Z,19.51
2024-04-24T21:53:05.737Z,19.50
2024-04-24T21:55:36.171Z,19.50
2024-04-24T21:58:06.541Z,19.49
2024-04-24T22:00:36.967Z,19.49
2024-04-24T22:03:07.922Z,19.47
2024-04-24T22:05:38.373Z,19.48
2024-04-24T22:08:11.808Z,19.49
2024-04-24T22:10:42.172Z,19.48
2024-04-24T22:13:12.518Z,19.48
2024-04-24T22:15:42.865Z,19.49
2024-04-24T22:18:14.333Z,19.47
2024-04-24T22:20:44.699Z,19.49
2024-04-24T22:23:17.968Z,19.48
2024-04-24T22:25:48.327Z,19.49
2024-04-24T22:28:18.662Z,19.51
2024-04-24T22:30:49.025Z,19.52
2024-04-24T22:33:20.689Z,19.51
2024-04-24T22:35:51.410Z,19.50
2024-04-24T22:38:24.484Z,19.48
2024-04-24T22:40:55.557Z,19.48
2024-04-24T22:43:25.887Z,19.48
2024-04-24T22:45:56.249Z,19.48
2024-04-24T22:48:26.613Z,19.55
2024-04-24T22:50:57.025Z,19.58
2024-04-24T22:53:30.125Z,19.61
2024-04-24T22:55:57.885Z,19.62
2024-04-24T22:58:28.254Z,19.58
2024-04-24T23:00:58.809Z,19.58
2024-04-24T23:03:29.142Z,19.60
2024-04-24T23:05:59.671Z,19.62
2024-04-24T23:08:32.839Z,19.65
2024-04-24T23:11:03.375Z,19.65
2024-04-24T23:13:33.924Z,19.63
2024-04-24T23:16:04.417Z,19.61
2024-04-24T23:18:38.568Z,19.59
2024-04-24T23:21:09.277Z,19.58
2024-04-24T23:23:42.959Z,19.57
2024-04-24T23:26:13.337Z,19.55
2024-04-24T23:28:43.720Z,19.55
2024-04-24T23:31:17.167Z,19.54
2024-04-24T23:33:47.877Z,19.53
2024-04-24T23:36:18.211Z,19.53
2024-04-24T23:38:51.319Z,19.54
2024-04-24T23:41:21.711Z,19.52
2024-04-24T23:43:50.070Z,19.53
2024-04-24T23:46:21.601Z,19.52
2024-04-24T23:48:52.526Z,19.52
2024-04-24T23:51:22.857Z,19.51
2024-04-24T23:53:55.867Z,19.52
2024-04-24T23:56:27.433Z,19.52
2024-04-24T23:58:57.899Z,19.50
